createdAt,value
2023-05-09T00:01:27.923Z,101539.66
2023-05-09T00:04:34.422Z,101532.41
2023-05-09T00:07:40.015Z,101534.84
2023-05-09T00:10:45.420Z,101538.00
2023-05-09T00:13:51.255Z,101540.34
2023-05-09T00:16:59.522Z,101542.56
2023-05-09T00:20:09.887Z,101540.44
2023-05-09T00:23:15.378Z,101538.81
2023-05-09T00:26:22.162Z,101534.41
2023-05-09T00:29:28.124Z,101534.16
2023-05-09T00:32:34.411Z,101529.84
2023-05-09T00:35:40.640Z,101534.38
2023-05-09T00:38:46.577Z,101529.91
2023-05-09T00:41:53.780Z,101527.19
2023-05-09T00:45:00.553Z,101529.84
2023-05-09T00:48:06.829Z,101532.34
2023-05-09T00:51:12.542Z,101530.16
2023-05-09T00:54:18.308Z,101533.59
2023-05-09T00:57:23.930Z,101526.28
2023-05-09T01:00:29.616Z,101524.72
2023-05-09T01:03:36.631Z,101521.88
2023-05-09T01:06:58.283Z,101515.94
2023-05-09T01:10:42.901Z,101509.75
2023-05-09T01:13:49.230Z,101510.19
2023-05-09T01:17:21.808Z,101506.66
2023-05-09T01:20:46.464Z,101507.97
2023-05-09T01:24:08.698Z,101513.19
2023-05-09T01:27:33.917Z,101512.13
2023-05-09T01:30:45.528Z,101508.25
2023-05-09T01:33:56.908Z,101513.75
2023-05-09T01:37:05.846Z,101520.06
2023-05-09T01:40:17.183Z,101513.91
2023-05-09T01:43:23.783Z,101518.34
2023-05-09T01:46:31.069Z,101514.50
2023-05-09T01:49:39.785Z,101515.81
2023-05-09T01:52:48.485Z,101518.56
2023-05-09T01:55:55.500Z,101513.03
2023-05-09T01:59:03.127Z,101515.72
2023-05-09T02:02:08.813Z,101516.31
2023-05-09T02:05:16.523Z,101517.88
2023-05-09T02:08:23.263Z,101514.75
2023-05-09T02:11:29.085Z,101513.34
2023-05-09T02:14:34.862Z,101512.75
2023-05-09T02:17:40.745Z,101507.72
2023-05-09T02:20:48.097Z,101506.63
2023-05-09T02:23:54.082Z,101498.78
2023-05-09T02:27:01.191Z,101491.59
2023-05-09T02:30:12.587Z,101488.22
2023-05-09T02:33:18.336Z,101479.53
2023-05-09T02:36:24.814Z,101488.72
2023-05-09T02:39:30.823Z,101489.28
2023-05-09T02:42:36.909Z,101491.97
2023-05-09T02:45:42.897Z,101490.31
2023-05-09T02:48:49.731Z,101486.53
2023-05-09T02:51:55.689Z,101489.75
2023-05-09T02:55:01.738Z,101497.81
2023-05-09T02:58:14.227Z,101484.66
2023-05-09T03:01:23.175Z,101479.22
2023-05-09T03:04:28.771Z,101478.75
2023-05-09T03:07:34.568Z,101477.69
2023-05-09T03:10:40.744Z,101478.63
2023-05-09T03:13:46.228Z,101482.28
2023-05-09T03:16:51.850Z,101476.53
2023-05-09T03:20:05.944Z,101480.16
2023-05-09T03:23:11.289Z,101470.41
2023-05-09T03:26:17.091Z,101473.13
2023-05-09T03:29:24.177Z,101480.25
2023-05-09T03:32:29.858Z,101477.22
2023-05-09T03:35:35.834Z,101481.31
2023-05-09T03:38:41.687Z,101490.19
2023-05-09T03:41:47.358Z,101483.16
2023-05-09T03:44:53.432Z,101488.56
2023-05-09T03:48:00.266Z,101485.41
2023-05-09T03:51:05.621Z,101485.50
2023-05-09T03:54:16.181Z,101485.81
2023-05-09T03:57:21.941Z,101494.50
2023-05-09T04:00:30.505Z,101489.06
2023-05-09T04:03:45.356Z,101493.75
2023-05-09T04:06:52.924Z,101502.00
2023-05-09T04:09:58.784Z,101498.31
2023-05-09T04:13:04.654Z,101487.53
2023-05-09T04:16:10.887Z,101490.19
2023-05-09T04:19:17.812Z,101495.19
2023-05-09T04:22:23.576Z,101495.50
2023-05-09T04:25:31.424Z,101496.81
2023-05-09T04:28:37.497Z,101499.81
2023-05-09T04:31:44.530Z,101495.00
2023-05-09T04:34:52.195Z,101495.19
2023-05-09T04:38:03.206Z,101497.09
2023-05-09T04:41:09.272Z,101492.75
2023-05-09T04:44:14.686Z,101489.06
2023-05-09T04:47:21.258Z,101479.28
2023-05-09T04:50:26.430Z,101478.72
2023-05-09T04:53:32.259Z,101489.75
2023-05-09T04:56:39.471Z,101489.06
2023-05-09T04:59:44.919Z,101495.19
2023-05-09T05:02:53.845Z,101498.19
2023-05-09T05:05:59.907Z,101498.13
2023-05-09T05:09:06.192Z,101492.97
2023-05-09T05:12:12.326Z,101496.44
2023-05-09T05:15:20.962Z,101510.03
2023-05-09T05:18:27.941Z,101505.63
2023-05-09T05:21:33.807Z,101506.19
2023-05-09T05:24:39.742Z,101512.75
2023-05-09T05:27:45.670Z,101518.25
2023-05-09T05:30:51.814Z,101527.38
2023-05-09T05:33:57.088Z,101528.75
2023-05-09T05:37:03.249Z,101530.84
2023-05-09T05:40:09.416Z,101522.34
2023-05-09T05:43:17.797Z,101527.72
2023-05-09T05:46:22.971Z,101533.97
2023-05-09T05:49:28.821Z,101535.25
2023-05-09T05:52:35.017Z,101534.16
2023-05-09T05:55:40.850Z,101536.66
2023-05-09T05:58:46.566Z,101535.34
2023-05-09T06:01:52.054Z,101529.69
2023-05-09T06:04:58.044Z,101536.19
2023-05-09T06:08:04.244Z,101533.88
2023-05-09T06:11:11.591Z,101532.56
2023-05-09T06:14:16.822Z,101529.00
2023-05-09T06:17:24.580Z,101530.22
2023-05-09T06:20:30.281Z,101524.81
2023-05-09T06:23:44.679Z,101521.41
2023-05-09T06:26:57.072Z,101529.25
2023-05-09T06:30:11.243Z,101529.94
2023-05-09T06:33:24.419Z,101531.84
2023-05-09T06:36:30.989Z,101518.16
2023-05-09T06:39:36.916Z,101523.13
2023-05-09T06:42:42.312Z,101530.19
2023-05-09T06:45:48.104Z,101537.75
2023-05-09T06:48:53.492Z,101540.19
2023-05-09T06:51:58.924Z,101514.00
2023-05-09T06:55:05.231Z,101518.16
2023-05-09T06:58:12.328Z,101502.06
2023-05-09T07:01:18.378Z,101495.91
2023-05-09T07:04:24.239Z,101512.09
2023-05-09T07:07:29.759Z,101503.56
2023-05-09T07:10:36.309Z,101506.47
2023-05-09T07:13:42.260Z,101504.38
2023-05-09T07:16:48.326Z,101501.22
2023-05-09T07:19:54.314Z,101491.25
2023-05-09T07:23:00.225Z,101489.09
2023-05-09T07:26:05.679Z,101494.31
2023-05-09T07:29:11.666Z,101485.63
2023-05-09T07:32:17.570Z,101498.50
2023-05-09T07:35:23.411Z,101493.97
2023-05-09T07:38:29.037Z,101492.91
2023-05-09T07:41:34.683Z,101489.16
2023-05-09T07:44:40.381Z,101483.81
2023-05-09T07:47:45.813Z,101477.34
2023-05-09T07:50:51.742Z,101477.09
2023-05-09T07:53:57.788Z,101478.47
2023-05-09T07:57:03.440Z,101476.03
2023-05-09T08:00:10.971Z,101472.53
2023-05-09T08:03:21.025Z,101471.72
2023-05-09T08:06:26.813Z,101477.69
2023-05-09T08:09:32.765Z,101478.00
2023-05-09T08:12:39.266Z,101486.66
2023-05-09T08:15:45.292Z,101488.00
2023-05-09T08:18:51.002Z,101487.19
2023-05-09T08:21:56.534Z,101480.97
2023-05-09T08:25:01.828Z,101481.25
2023-05-09T08:28:07.157Z,101472.06
2023-05-09T08:31:12.548Z,101459.34
2023-05-09T08:34:18.066Z,101469.06
2023-05-09T08:37:23.281Z,101467.97
2023-05-09T08:40:29.074Z,101473.34
2023-05-09T08:43:35.514Z,101470.91
2023-05-09T08:46:44.894Z,101475.53
2023-05-09T08:49:51.782Z,101469.03
2023-05-09T08:52:57.708Z,101466.56
2023-05-09T08:56:04.387Z,101467.09
2023-05-09T08:59:10.792Z,101467.34
2023-05-09T09:02:17.914Z,101466.66
2023-05-09T09:05:40.079Z,101463.31
2023-05-09T09:08:49.303Z,101461.31
2023-05-09T09:11:55.714Z,101464.25
2023-05-09T09:15:06.213Z,101455.84
2023-05-09T09:18:22.974Z,101457.97
2023-05-09T09:21:28.640Z,101451.06
2023-05-09T09:24:34.797Z,101453.91
2023-05-09T09:27:42.190Z,101450.09
2023-05-09T09:30:50.254Z,101441.75
2023-05-09T09:34:02.896Z,101442.31
2023-05-09T09:37:08.514Z,101446.50
2023-05-09T09:40:15.056Z,101443.69
2023-05-09T09:43:20.777Z,101436.97
2023-05-09T09:46:26.555Z,101424.22
2023-05-09T09:49:32.123Z,101436.34
2023-05-09T09:52:37.704Z,101432.78
2023-05-09T09:55:53.576Z,101437.72
2023-05-09T09:59:18.950Z,101434.91
2023-05-09T10:02:25.119Z,101426.25
2023-05-09T10:05:32.769Z,101425.81
2023-05-09T10:08:38.320Z,101428.28
2023-05-09T10:11:43.771Z,101412.91
2023-05-09T10:14:49.940Z,101409.88
2023-05-09T10:17:58.804Z,101407.34
2023-05-09T10:21:07.993Z,101405.84
2023-05-09T10:24:14.072Z,101405.25
2023-05-09T10:27:23.128Z,101404.91
2023-05-09T10:30:34.249Z,101409.84
2023-05-09T10:33:48.903Z,101403.00
2023-05-09T10:36:55.158Z,101402.50
2023-05-09T10:40:03.405Z,101403.31
2023-05-09T10:43:08.639Z,101403.41
2023-05-09T10:46:14.990Z,101401.03
2023-05-09T10:49:21.229Z,101405.19
2023-05-09T10:52:33.936Z,101390.44
2023-05-09T10:55:52.488Z,101391.00
2023-05-09T10:59:02.375Z,101386.00
2023-05-09T11:02:16.313Z,101376.13
2023-05-09T11:05:22.017Z,101370.38
2023-05-09T11:08:29.830Z,101367.38
2023-05-09T11:11:51.671Z,101354.59
2023-05-09T11:15:08.244Z,101357.75
2023-05-09T11:18:13.775Z,101343.31
2023-05-09T11:21:20.790Z,101344.94
2023-05-09T11:24:31.336Z,101345.22
2023-05-09T11:27:47.135Z,101342.75
2023-05-09T11:30:54.242Z,101337.47
2023-05-09T11:34:05.269Z,101336.94
2023-05-09T11:37:12.184Z,101327.25
2023-05-09T11:40:20.065Z,101326.84
2023-05-09T11:43:26.004Z,101328.00
2023-05-09T11:46:31.927Z,101329.19
2023-05-09T11:49:37.636Z,101311.56
2023-05-09T11:52:43.737Z,101321.91
2023-05-09T11:55:49.881Z,101321.47
2023-05-09T11:58:55.700Z,101305.84
2023-05-09T12:02:07.877Z,101302.53
2023-05-09T12:05:18.824Z,101307.34
2023-05-09T12:08:28.718Z,101297.69
2023-05-09T12:11:35.297Z,101303.22
2023-05-09T12:14:41.893Z,101296.28
2023-05-09T12:17:50.479Z,101300.91
2023-05-09T12:20:57.662Z,101282.28
2023-05-09T12:24:02.834Z,101275.84
2023-05-09T12:27:08.211Z,101258.75
2023-05-09T12:30:16.314Z,101268.31
2023-05-09T12:33:22.590Z,101271.38
2023-05-09T12:36:28.069Z,101253.34
2023-05-09T12:39:34.126Z,101253.13
2023-05-09T12:42:43.270Z,101262.69
2023-05-09T12:45:52.969Z,101261.56
2023-05-09T12:48:58.452Z,101248.41
2023-05-09T12:52:05.066Z,101238.47
2023-05-09T12:55:14.155Z,101222.72
2023-05-09T12:58:19.581Z,101217.88
2023-05-09T13:01:29.520Z,101216.59
2023-05-09T13:04:34.922Z,101216.31
2023-05-09T13:07:48.961Z,101207.06
2023-05-09T13:11:04.035Z,101202.66
2023-05-09T13:15:21.805Z,101200.25
2023-05-09T13:18:27.145Z,101189.94
2023-05-09T13:21:33.733Z,101181.41
2023-05-09T13:24:38.916Z,101192.34
2023-05-09T13:27:44.179Z,101183.25
2023-05-09T13:30:49.577Z,101174.38
2023-05-09T13:33:54.818Z,101172.38
2023-05-09T13:37:00.024Z,101179.94
2023-05-09T13:40:06.242Z,101177.75
2023-05-09T13:43:11.607Z,101178.94
2023-05-09T13:46:17.145Z,101172.50
2023-05-09T13:49:22.735Z,101168.94
2023-05-09T13:52:28.680Z,101158.66
2023-05-09T13:55:34.863Z,101161.94
2023-05-09T13:58:39.769Z,101151.19
2023-05-09T14:01:45.325Z,101152.25
2023-05-09T14:04:50.977Z,101152.84
2023-05-09T14:07:56.526Z,101144.88
2023-05-09T14:11:02.090Z,101139.25
2023-05-09T14:14:07.743Z,101135.97
2023-05-09T14:17:13.683Z,101130.81
2023-05-09T14:20:19.797Z,101128.91
2023-05-09T14:23:25.404Z,101113.25
2023-05-09T14:26:31.289Z,101114.75
2023-05-09T14:29:38.665Z,101120.66
2023-05-09T14:32:44.716Z,101115.16
2023-05-09T14:35:50.046Z,101120.09
2023-05-09T14:38:55.071Z,101105.50
2023-05-09T14:42:00.496Z,101106.47
2023-05-09T14:45:07.520Z,101106.44
2023-05-09T14:48:14.537Z,101116.19
2023-05-09T14:51:22.039Z,101127.03
2023-05-09T14:54:27.763Z,101122.47
2023-05-09T14:57:34.002Z,101120.56
2023-05-09T15:00:39.540Z,101124.59
2023-05-09T15:03:44.687Z,101122.41
2023-05-09T15:06:50.111Z,101112.84
2023-05-09T15:09:55.439Z,101116.78
2023-05-09T15:13:02.698Z,101117.97
2023-05-09T15:16:09.105Z,101116.44
2023-05-09T15:19:15.037Z,101114.34
2023-05-09T15:22:20.507Z,101105.59
2023-05-09T15:25:25.987Z,101090.31
2023-05-09T15:28:31.592Z,101093.47
2023-05-09T15:31:37.190Z,101095.28
2023-05-09T15:35:00.853Z,101100.22
2023-05-09T15:38:08.695Z,101099.94
2023-05-09T15:41:15.039Z,101097.06
2023-05-09T15:44:20.909Z,101090.19
2023-05-09T15:47:26.105Z,101097.84
2023-05-09T15:50:31.978Z,101105.00
2023-05-09T15:53:37.103Z,101105.09
2023-05-09T15:56:42.449Z,101097.94
2023-05-09T15:59:48.096Z,101102.88
2023-05-09T16:02:53.350Z,101096.53
2023-05-09T16:05:58.991Z,101088.53
2023-05-09T16:09:05.154Z,101087.38
2023-05-09T16:12:10.872Z,101087.69
2023-05-09T16:15:16.170Z,101091.59
2023-05-09T16:18:21.770Z,101087.28
2023-05-09T16:21:29.386Z,101083.06
2023-05-09T16:24:34.874Z,101086.56
2023-05-09T16:27:40.163Z,101078.31
2023-05-09T16:30:45.632Z,101084.63
2023-05-09T16:33:50.788Z,101086.63
2023-05-09T16:36:56.072Z,101080.69
2023-05-09T16:40:02.084Z,101083.25
2023-05-09T16:43:07.716Z,101072.16
2023-05-09T16:46:16.598Z,101069.28
2023-05-09T16:49:24.314Z,101068.31
2023-05-09T16:52:30.765Z,101069.38
2023-05-09T16:55:36.295Z,101065.63
2023-05-09T16:58:42.123Z,101053.41
2023-05-09T17:01:47.867Z,101054.97
2023-05-09T17:04:53.322Z,101050.19
2023-05-09T17:07:59.213Z,101065.59
2023-05-09T17:11:05.711Z,101064.63
2023-05-09T17:14:11.232Z,101068.66
2023-05-09T17:17:17.921Z,101062.41
2023-05-09T17:20:23.364Z,101062.41
2023-05-09T17:23:29.219Z,101067.47
2023-05-09T17:26:34.223Z,101059.28
2023-05-09T17:29:39.511Z,101066.47
2023-05-09T17:32:45.151Z,101067.44
2023-05-09T17:35:50.596Z,101069.09
2023-05-09T17:38:56.407Z,101066.81
2023-05-09T17:42:02.130Z,101071.66
2023-05-09T17:45:08.413Z,101072.81
2023-05-09T17:48:14.801Z,101065.81
2023-05-09T17:51:20.461Z,101057.22
2023-05-09T17:54:26.251Z,101059.47
2023-05-09T17:57:32.005Z,101053.38
2023-05-09T18:00:37.837Z,101044.50
2023-05-09T18:03:42.882Z,101046.63
2023-05-09T18:06:51.544Z,101049.09
2023-05-09T18:09:57.397Z,101048.94
2023-05-09T18:13:03.724Z,101054.63
2023-05-09T18:16:09.304Z,101053.88
2023-05-09T18:19:15.091Z,101058.19
2023-05-09T18:22:21.875Z,101057.16
2023-05-09T18:25:27.756Z,101062.34
2023-05-09T18:28:39.467Z,101054.22
2023-05-09T18:31:45.032Z,101056.44
2023-05-09T18:34:50.621Z,101062.19
2023-05-09T18:37:56.367Z,101056.19
2023-05-09T18:41:02.368Z,101064.31
2023-05-09T18:44:08.938Z,101056.53
2023-05-09T18:47:15.480Z,101053.56
2023-05-09T18:50:20.919Z,101057.66
2023-05-09T18:53:27.093Z,101055.25
2023-05-09T18:56:39.452Z,101056.66
2023-05-09T18:59:46.222Z,101057.59
2023-05-09T19:02:52.061Z,101054.28
2023-05-09T19:05:58.888Z,101051.56
2023-05-09T19:09:04.780Z,101057.03
2023-05-09T19:12:10.088Z,101060.84
2023-05-09T19:15:15.243Z,101064.38
2023-05-09T19:18:20.639Z,101069.56
2023-05-09T19:21:26.230Z,101076.59
2023-05-09T19:24:32.982Z,101072.84
2023-05-09T19:27:38.533Z,101072.06
2023-05-09T19:30:43.914Z,101070.16
2023-05-09T19:33:50.000Z,101072.06
2023-05-09T19:36:55.513Z,101076.72
2023-05-09T19:40:01.433Z,101076.53
2023-05-09T19:43:07.072Z,101076.81
2023-05-09T19:46:12.700Z,101077.66
2023-05-09T19:49:18.683Z,101077.97
2023-05-09T19:52:24.567Z,101075.53
2023-05-09T19:55:30.183Z,101075.28
2023-05-09T19:58:36.092Z,101073.09
2023-05-09T20:01:41.428Z,101075.31
2023-05-09T20:04:50.113Z,101083.16
2023-05-09T20:07:55.601Z,101075.38
2023-05-09T20:11:00.582Z,101074.81
2023-05-09T20:14:05.930Z,101073.78
2023-05-09T20:17:11.558Z,101078.66
2023-05-09T20:20:17.907Z,101072.19
2023-05-09T20:23:23.540Z,101068.09
2023-05-09T20:26:29.890Z,101061.97
2023-05-09T20:29:35.041Z,101065.47
2023-05-09T20:32:40.844Z,101062.50
2023-05-09T20:35:46.234Z,101059.00
2023-05-09T20:38:51.812Z,101059.56
2023-05-09T20:42:02.521Z,101059.31
2023-05-09T20:45:09.086Z,101055.50
2023-05-09T20:48:14.377Z,101051.72
2023-05-09T20:51:19.631Z,101048.25
2023-05-09T20:54:26.058Z,101043.72
2023-05-09T20:57:31.818Z,101039.94
2023-05-09T21:00:37.071Z,101040.47
2023-05-09T21:03:42.701Z,101041.59
2023-05-09T21:06:48.477Z,101036.47
2023-05-09T21:09:54.481Z,101041.06
2023-05-09T21:13:00.017Z,101034.59
2023-05-09T21:16:06.311Z,101032.44
2023-05-09T21:19:12.109Z,101031.88
2023-05-09T21:22:18.009Z,101031.38
2023-05-09T21:25:23.575Z,101031.09
2023-05-09T21:28:29.759Z,101030.31
2023-05-09T21:31:35.837Z,101029.75
2023-05-09T21:34:41.295Z,101024.91
2023-05-09T21:37:46.863Z,101030.56
2023-05-09T21:40:52.270Z,101031.94
2023-05-09T21:43:57.642Z,101027.06
2023-05-09T21:47:02.908Z,101019.50
2023-05-09T21:50:08.925Z,101017.63
2023-05-09T21:53:14.864Z,101017.88
2023-05-09T21:56:20.185Z,101009.28
2023-05-09T21:59:26.869Z,101007.63
2023-05-09T22:02:32.263Z,101004.44
2023-05-09T22:05:38.052Z,101002.81
2023-05-09T22:08:43.032Z,100996.88
2023-05-09T22:11:48.201Z,100991.50
2023-05-09T22:14:56.653Z,100985.56
2023-05-09T22:18:02.625Z,100979.13
2023-05-09T22:21:08.025Z,100985.84
2023-05-09T22:24:13.324Z,100982.63
2023-05-09T22:27:19.406Z,100974.81
2023-05-09T22:30:25.278Z,100976.69
2023-05-09T22:33:30.475Z,100975.88
2023-05-09T22:36:35.934Z,100973.19
2023-05-09T22:39:41.269Z,100970.50
2023-05-09T22:42:47.948Z,100962.97
2023-05-09T22:45:53.692Z,100962.97
2023-05-09T22:48:58.761Z,100958.66
2023-05-09T22:52:04.561Z,100966.72
2023-05-09T22:55:09.953Z,100961.06
2023-05-09T22:58:16.512Z,100963.22
2023-05-09T23:01:21.907Z,100952.16
2023-05-09T23:04:27.581Z,100950.28
2023-05-09T23:07:33.375Z,100945.47
2023-05-09T23:10:38.691Z,100937.09
2023-05-09T23:13:44.286Z,100934.41
2023-05-09T23:16:51.188Z,100931.19
2023-05-09T23:19:57.041Z,100935.75
2023-05-09T23:23:04.100Z,100930.66
2023-05-09T23:26:10.621Z,100925.50
2023-05-09T23:29:16.073Z,100929.03
2023-05-09T23:32:21.502Z,100926.06
2023-05-09T23:35:27.547Z,100914.47
2023-05-09T23:38:32.821Z,100905.88
2023-05-09T23:41:38.609Z,100910.69
2023-05-09T23:44:44.162Z,100905.84
2023-05-09T23:47:49.673Z,100903.19
2023-05-09T23:50:55.516Z,100910.72
2023-05-09T23:54:01.164Z,100910.72
2023-05-09T23:57:06.987Z,100916.66
